createdAt,value
2022-10-04T00:01:55.646Z,14.77
2022-10-04T00:04:30.744Z,14.75
2022-10-04T00:07:04.253Z,14.48
2022-10-04T00:09:42.635Z,14.63
2022-10-04T00:12:23.071Z,14.44
2022-10-04T00:14:52.592Z,14.66
2022-10-04T00:17:27.259Z,14.48
2022-10-04T00:19:57.449Z,14.37
2022-10-04T00:22:28.835Z,14.52
2022-10-04T00:25:21.334Z,14.40
2022-10-04T00:28:32.284Z,14.59
2022-10-04T00:31:26.300Z,14.42
2022-10-04T00:33:58.626Z,14.40
2022-10-04T00:37:04.905Z,14.24
2022-10-04T00:40:00.916Z,14.24
2022-10-04T00:42:56.827Z,14.14
2022-10-04T00:45:35.449Z,14.02
2022-10-04T00:48:31.612Z,14.09
2022-10-04T00:51:09.048Z,13.74
2022-10-04T00:53:59.923Z,13.82
2022-10-04T00:56:38.371Z,14.00
2022-10-04T00:59:28.801Z,13.76
2022-10-04T01:02:03.887Z,14.02
2022-10-04T01:04:43.321Z,14.07
2022-10-04T01:07:14.822Z,13.98
2022-10-04T01:09:53.500Z,14.00
2022-10-04T01:12:38.752Z,14.03
2022-10-04T01:15:12.123Z,13.93
2022-10-04T01:17:40.403Z,13.88
2022-10-04T01:20:35.181Z,13.96
2022-10-04T01:23:05.425Z,13.92
2022-10-04T01:25:51.245Z,13.57
2022-10-04T01:28:20.223Z,13.81
2022-10-04T01:30:48.845Z,13.69
2022-10-04T01:33:17.154Z,13.70
2022-10-04T01:35:45.781Z,13.73
2022-10-04T01:38:15.589Z,13.54
2022-10-04T01:40:52.452Z,13.51
2022-10-04T01:43:28.059Z,13.58
2022-10-04T01:46:02.304Z,13.27
2022-10-04T01:48:36.953Z,13.58
2022-10-04T01:51:14.317Z,13.57
2022-10-04T01:53:48.944Z,13.63
2022-10-04T01:56:21.276Z,13.41
2022-10-04T01:58:53.690Z,13.32
2022-10-04T02:01:30.742Z,13.49
2022-10-04T02:04:05.819Z,13.04
2022-10-04T02:06:40.849Z,13.38
2022-10-04T02:09:16.779Z,13.00
2022-10-04T02:11:50.949Z,13.02
2022-10-04T02:14:23.359Z,13.06
2022-10-04T02:16:53.897Z,13.10
2022-10-04T02:19:27.089Z,13.15
2022-10-04T02:21:57.036Z,13.08
2022-10-04T02:24:26.956Z,13.04
2022-10-04T02:26:55.540Z,12.93
2022-10-04T02:29:24.145Z,12.81
2022-10-04T02:32:13.268Z,12.54
2022-10-04T02:34:42.116Z,12.47
2022-10-04T02:37:11.037Z,12.74
2022-10-04T02:39:45.916Z,12.75
2022-10-04T02:42:21.722Z,12.41
2022-10-04T02:44:57.745Z,12.56
2022-10-04T02:47:31.516Z,12.49
2022-10-04T02:50:07.281Z,12.44
2022-10-04T02:52:43.339Z,12.45
2022-10-04T02:55:20.699Z,12.47
2022-10-04T02:57:52.490Z,12.43
2022-10-04T03:00:24.936Z,12.41
2022-10-04T03:03:24.182Z,12.06
2022-10-04T03:06:03.459Z,12.35
2022-10-04T03:08:38.006Z,12.03
2022-10-04T03:11:09.629Z,11.82
2022-10-04T03:13:38.762Z,12.22
2022-10-04T03:16:07.825Z,12.17
2022-10-04T03:18:38.111Z,11.83
2022-10-04T03:21:12.154Z,12.17
2022-10-04T03:23:41.933Z,11.66
2022-10-04T03:26:29.841Z,11.67
2022-10-04T03:28:59.063Z,11.81
2022-10-04T03:31:29.007Z,12.02
2022-10-04T03:33:59.164Z,11.71
2022-10-04T03:36:28.757Z,11.79
2022-10-04T03:38:58.821Z,11.90
2022-10-04T03:41:29.095Z,11.87
2022-10-04T03:44:01.463Z,11.52
2022-10-04T03:46:33.538Z,11.41
2022-10-04T03:49:02.521Z,11.84
2022-10-04T03:51:30.975Z,11.82
2022-10-04T03:54:02.575Z,11.77
2022-10-04T03:56:36.201Z,11.80
2022-10-04T03:59:06.459Z,11.55
2022-10-04T04:01:40.515Z,11.81
2022-10-04T04:04:22.215Z,11.70
2022-10-04T04:07:01.461Z,11.77
2022-10-04T04:09:45.765Z,11.35
2022-10-04T04:12:22.257Z,11.49
2022-10-04T04:14:54.300Z,11.42
2022-10-04T04:17:41.273Z,11.40
2022-10-04T04:20:30.737Z,11.57
2022-10-04T04:23:05.040Z,11.34
2022-10-04T04:25:39.473Z,11.12
2022-10-04T04:28:27.702Z,11.45
2022-10-04T04:31:01.690Z,11.56
2022-10-04T04:33:32.888Z,11.37
2022-10-04T04:36:07.718Z,11.31
2022-10-04T04:38:56.473Z,11.57
2022-10-04T04:41:26.736Z,11.55
2022-10-04T04:43:56.899Z,11.50
2022-10-04T04:46:28.148Z,11.29
2022-10-04T04:49:03.898Z,11.51
2022-10-04T04:51:34.329Z,11.44
2022-10-04T04:54:07.218Z,11.42
2022-10-04T04:56:36.747Z,11.40
2022-10-04T04:59:09.146Z,11.02
2022-10-04T05:01:43.790Z,11.40
2022-10-04T05:04:21.466Z,11.26
2022-10-04T05:07:01.398Z,11.37
2022-10-04T05:09:35.720Z,11.29
2022-10-04T05:12:11.679Z,11.36
2022-10-04T05:14:47.108Z,11.43
2022-10-04T05:17:21.733Z,11.47
2022-10-04T05:19:50.617Z,10.98
2022-10-04T05:22:23.753Z,11.55
2022-10-04T05:24:56.621Z,11.38
2022-10-04T05:27:30.560Z,11.58
2022-10-04T05:30:07.991Z,11.45
2022-10-04T05:32:52.047Z,11.37
2022-10-04T05:35:23.483Z,11.63
2022-10-04T05:38:02.293Z,11.65
2022-10-04T05:40:42.363Z,11.57
2022-10-04T05:43:32.993Z,11.73
2022-10-04T05:46:25.392Z,11.37
2022-10-04T05:48:57.152Z,11.79
2022-10-04T05:51:31.465Z,11.80
2022-10-04T05:54:04.236Z,11.73
2022-10-04T05:57:20.508Z,11.57
2022-10-04T06:00:13.598Z,11.67
2022-10-04T06:03:36.153Z,11.89
2022-10-04T06:06:16.785Z,11.68
2022-10-04T06:08:53.200Z,11.80
2022-10-04T06:11:50.884Z,11.89
2022-10-04T06:14:51.343Z,11.85
2022-10-04T06:17:52.294Z,11.91
2022-10-04T06:20:55.602Z,11.52
2022-10-04T06:23:27.456Z,11.78
2022-10-04T06:26:00.196Z,11.88
2022-10-04T06:28:35.714Z,11.71
2022-10-04T06:31:33.408Z,11.87
2022-10-04T06:34:37.020Z,11.66
2022-10-04T06:37:23.318Z,11.74
2022-10-04T06:40:37.664Z,11.52
2022-10-04T06:43:25.102Z,11.56
2022-10-04T06:46:16.793Z,11.55
2022-10-04T06:49:33.064Z,11.36
2022-10-04T06:52:27.815Z,11.57
2022-10-04T06:55:40.992Z,11.61
2022-10-04T06:58:50.026Z,11.66
2022-10-04T07:01:28.441Z,11.55
2022-10-04T07:04:07.136Z,10.84
2022-10-04T07:06:43.559Z,11.27
2022-10-04T07:09:22.760Z,11.53
2022-10-04T07:11:56.673Z,10.71
2022-10-04T07:14:32.689Z,11.37
2022-10-04T07:17:10.399Z,11.55
2022-10-04T07:19:43.306Z,9.89
2022-10-04T07:22:18.778Z,10.80
2022-10-04T07:25:08.468Z,11.49
2022-10-04T07:28:10.378Z,11.61
2022-10-04T07:30:48.186Z,11.64
2022-10-04T07:33:22.741Z,11.86
2022-10-04T07:35:57.485Z,12.08
2022-10-04T07:38:31.401Z,12.03
2022-10-04T07:41:09.480Z,11.59
2022-10-04T07:43:50.675Z,11.49
2022-10-04T07:46:31.303Z,10.66
2022-10-04T07:49:00.402Z,12.16
2022-10-04T07:51:40.090Z,11.82
2022-10-04T07:54:22.977Z,12.82
2022-10-04T07:57:00.502Z,12.94
2022-10-04T07:59:46.311Z,13.36
2022-10-04T08:02:30.939Z,13.55
2022-10-04T08:05:18.630Z,13.37
2022-10-04T08:08:09.044Z,13.49
2022-10-04T08:10:57.449Z,13.85
2022-10-04T08:13:38.074Z,13.90
2022-10-04T08:16:23.858Z,14.33
2022-10-04T08:19:14.841Z,14.68
2022-10-04T08:21:59.369Z,14.55
2022-10-04T08:24:36.829Z,14.33
2022-10-04T08:27:28.568Z,14.79
2022-10-04T08:30:11.476Z,15.01
2022-10-04T08:32:56.929Z,14.95
2022-10-04T08:35:38.127Z,15.22
2022-10-04T08:38:43.236Z,15.01
2022-10-04T08:42:29.665Z,15.50
2022-10-04T08:45:48.576Z,15.81
2022-10-04T08:49:29.884Z,15.75
2022-10-04T08:52:41.142Z,16.02
2022-10-04T08:56:05.172Z,15.85
2022-10-04T08:59:08.662Z,16.01
2022-10-04T09:02:17.958Z,16.24
2022-10-04T09:05:30.532Z,16.01
2022-10-04T09:09:02.570Z,16.47
2022-10-04T09:12:08.083Z,16.90
2022-10-04T09:15:05.415Z,16.87
2022-10-04T09:17:48.615Z,16.48
2022-10-04T09:20:38.768Z,16.58
2022-10-04T09:23:31.071Z,16.84
2022-10-04T09:26:21.269Z,17.24
2022-10-04T09:29:15.759Z,16.99
2022-10-04T09:32:32.032Z,17.36
2022-10-04T09:35:32.040Z,17.47
2022-10-04T09:39:28.909Z,17.81
2022-10-04T09:42:34.105Z,17.86
2022-10-04T09:45:27.522Z,17.45
2022-10-04T09:48:17.140Z,18.05
2022-10-04T09:51:28.191Z,17.78
2022-10-04T09:54:26.734Z,18.16
2022-10-04T09:57:17.490Z,18.15
2022-10-04T10:00:10.616Z,18.67
2022-10-04T10:03:27.325Z,18.77
2022-10-04T10:06:48.832Z,18.80
2022-10-04T10:09:50.484Z,19.02
2022-10-04T10:12:59.594Z,19.22
2022-10-04T10:15:34.897Z,19.66
2022-10-04T10:18:15.226Z,19.76
2022-10-04T10:21:21.527Z,19.35
2022-10-04T10:24:21.201Z,19.39
2022-10-04T10:27:31.895Z,19.33
2022-10-04T10:30:21.370Z,18.90
2022-10-04T10:33:43.991Z,19.45
2022-10-04T10:36:56.321Z,19.49
2022-10-04T10:39:57.747Z,19.27
2022-10-04T10:43:01.132Z,19.84
2022-10-04T10:45:48.598Z,19.64
2022-10-04T10:48:29.258Z,19.46
2022-10-04T10:51:10.731Z,19.71
2022-10-04T10:54:40.142Z,20.09
2022-10-04T10:57:25.357Z,20.34
2022-10-04T11:00:21.089Z,20.90
2022-10-04T11:03:31.141Z,21.12
2022-10-04T11:06:50.691Z,21.62
2022-10-04T11:09:57.164Z,21.38
2022-10-04T11:13:09.829Z,21.31
2022-10-04T11:16:25.320Z,20.91
2022-10-04T11:19:46.535Z,20.84
2022-10-04T11:23:12.979Z,20.53
2022-10-04T11:26:46.868Z,20.79
2022-10-04T11:29:33.863Z,20.85
2022-10-04T11:33:06.982Z,21.16
2022-10-04T11:36:08.565Z,21.30
2022-10-04T11:39:02.629Z,20.75
2022-10-04T11:41:50.248Z,20.76
2022-10-04T11:44:53.135Z,20.44
2022-10-04T11:47:40.626Z,20.29
2022-10-04T11:50:40.068Z,20.55
2022-10-04T11:53:55.413Z,20.55
2022-10-04T11:56:48.622Z,20.50
2022-10-04T11:59:37.447Z,20.27
2022-10-04T12:02:42.101Z,20.61
2022-10-04T12:05:54.101Z,20.88
2022-10-04T12:08:33.799Z,20.94
2022-10-04T12:12:09.211Z,21.12
2022-10-04T12:14:58.666Z,21.07
2022-10-04T12:18:06.591Z,21.20
2022-10-04T12:21:45.314Z,21.34
2022-10-04T12:24:48.533Z,21.28
2022-10-04T12:28:11.376Z,21.44
2022-10-04T12:31:13.554Z,21.63
2022-10-04T12:33:54.857Z,21.90
2022-10-04T12:36:50.523Z,22.11
2022-10-04T12:40:09.277Z,22.43
2022-10-04T12:42:47.961Z,22.36
2022-10-04T12:45:50.073Z,22.37
2022-10-04T12:48:35.604Z,22.39
2022-10-04T12:51:23.303Z,22.61
2022-10-04T12:54:01.298Z,22.74
2022-10-04T12:56:47.448Z,22.99
2022-10-04T12:59:49.287Z,22.88
2022-10-04T13:02:36.660Z,22.97
2022-10-04T13:05:17.323Z,23.20
2022-10-04T13:08:23.696Z,23.22
2022-10-04T13:11:25.701Z,22.83
2022-10-04T13:14:39.508Z,22.76
2022-10-04T13:17:34.766Z,22.94
2022-10-04T13:20:34.604Z,23.36
2022-10-04T13:23:08.865Z,23.15
2022-10-04T13:26:06.325Z,23.59
2022-10-04T13:28:49.638Z,23.76
2022-10-04T13:31:25.859Z,23.77
2022-10-04T13:34:10.456Z,23.75
2022-10-04T13:37:06.243Z,23.63
2022-10-04T13:40:12.681Z,23.95
2022-10-04T13:43:07.470Z,24.01
2022-10-04T13:45:48.551Z,24.04
2022-10-04T13:48:37.321Z,24.14
2022-10-04T13:51:39.024Z,24.29
2022-10-04T13:54:47.897Z,24.24
2022-10-04T13:57:25.593Z,24.15
2022-10-04T14:00:03.907Z,23.80
2022-10-04T14:03:11.064Z,23.83
2022-10-04T14:06:32.260Z,23.41
2022-10-04T14:09:44.681Z,23.73
2022-10-04T14:12:38.551Z,23.85
2022-10-04T14:15:53.071Z,24.02
2022-10-04T14:19:13.309Z,23.43
2022-10-04T14:22:44.447Z,23.44
2022-10-04T14:26:03.972Z,23.46
2022-10-04T14:29:01.956Z,23.76
2022-10-04T14:32:33.505Z,23.70
2022-10-04T14:35:10.312Z,23.16
2022-10-04T14:38:29.101Z,23.16
2022-10-04T14:41:52.755Z,23.24
2022-10-04T14:45:00.838Z,23.12
2022-10-04T14:47:55.380Z,23.18
2022-10-04T14:50:33.920Z,22.93
2022-10-04T14:53:22.076Z,23.00
2022-10-04T14:56:39.409Z,22.52
2022-10-04T14:59:28.741Z,21.86
2022-10-04T15:02:42.965Z,22.08
2022-10-04T15:05:40.098Z,21.51
2022-10-04T15:09:07.840Z,21.63
2022-10-04T15:12:21.508Z,21.51
2022-10-04T15:15:00.885Z,21.41
2022-10-04T15:17:37.982Z,21.46
2022-10-04T15:20:20.686Z,21.74
2022-10-04T15:22:54.043Z,21.36
2022-10-04T15:25:42.933Z,21.56
2022-10-04T15:28:52.444Z,21.49
2022-10-04T15:31:29.173Z,21.77
2022-10-04T15:34:06.938Z,21.32
2022-10-04T15:37:02.836Z,21.50
2022-10-04T15:40:16.487Z,21.49
2022-10-04T15:43:13.320Z,21.70
2022-10-04T15:46:26.789Z,21.60
2022-10-04T15:49:26.068Z,21.51
2022-10-04T15:52:25.654Z,21.48
2022-10-04T15:55:27.424Z,21.55
2022-10-04T15:58:33.661Z,21.65
2022-10-04T16:01:26.337Z,21.56
2022-10-04T16:04:20.173Z,21.43
2022-10-04T16:06:54.088Z,21.57
2022-10-04T16:09:37.402Z,21.42
2022-10-04T16:12:21.868Z,21.47
2022-10-04T16:14:59.777Z,21.41
2022-10-04T16:18:00.168Z,21.33
2022-10-04T16:20:51.161Z,21.34
2022-10-04T16:23:31.581Z,21.20
2022-10-04T16:26:03.336Z,21.36
2022-10-04T16:29:16.065Z,21.18
2022-10-04T16:32:11.145Z,21.02
2022-10-04T16:34:54.682Z,20.99
2022-10-04T16:37:40.662Z,20.91
2022-10-04T16:40:31.900Z,20.94
2022-10-04T16:43:04.445Z,20.71
2022-10-04T16:45:50.484Z,20.69
2022-10-04T16:48:36.014Z,20.50
2022-10-04T16:52:06.573Z,20.35
2022-10-04T16:55:02.422Z,20.32
2022-10-04T16:57:30.948Z,20.36
2022-10-04T17:00:05.749Z,20.25
2022-10-04T17:03:05.395Z,20.28
2022-10-04T17:06:13.399Z,20.22
2022-10-04T17:08:53.878Z,20.09
2022-10-04T17:11:59.958Z,19.82
2022-10-04T17:14:57.210Z,19.78
2022-10-04T17:17:43.793Z,19.83
2022-10-04T17:20:26.558Z,19.55
2022-10-04T17:23:16.134Z,19.63
2022-10-04T17:25:53.942Z,19.55
2022-10-04T17:28:30.719Z,19.51
2022-10-04T17:31:12.485Z,19.66
2022-10-04T17:34:03.378Z,19.60
2022-10-04T17:36:40.491Z,19.58
2022-10-04T17:39:35.705Z,19.74
2022-10-04T17:42:20.427Z,19.56
2022-10-04T17:45:21.881Z,19.33
2022-10-04T17:48:19.833Z,19.34
2022-10-04T17:51:19.727Z,19.46
2022-10-04T17:54:13.435Z,19.53
2022-10-04T17:56:50.377Z,19.62
2022-10-04T17:59:29.983Z,19.62
2022-10-04T18:02:10.219Z,19.23
2022-10-04T18:04:49.243Z,19.46
2022-10-04T18:07:22.322Z,19.40
2022-10-04T18:09:54.617Z,19.22
2022-10-04T18:12:31.329Z,19.21
2022-10-04T18:15:08.465Z,19.54
2022-10-04T18:17:43.595Z,19.56
2022-10-04T18:20:31.293Z,19.47
2022-10-04T18:23:02.928Z,19.30
2022-10-04T18:25:34.015Z,19.39
2022-10-04T18:28:15.071Z,19.37
2022-10-04T18:30:59.082Z,19.15
2022-10-04T18:33:48.187Z,19.01
2022-10-04T18:36:22.353Z,19.11
2022-10-04T18:39:07.257Z,19.24
2022-10-04T18:41:56.931Z,19.15
2022-10-04T18:44:30.289Z,19.22
2022-10-04T18:47:02.484Z,19.21
2022-10-04T18:49:33.360Z,19.16
2022-10-04T18:52:32.136Z,19.34
2022-10-04T18:55:15.455Z,19.22
2022-10-04T18:58:09.863Z,19.13
2022-10-04T19:01:16.767Z,19.18
2022-10-04T19:03:54.054Z,19.25
2022-10-04T19:06:27.781Z,19.05
2022-10-04T19:09:10.159Z,19.02
2022-10-04T19:11:45.174Z,19.04
2022-10-04T19:14:30.195Z,18.70
2022-10-04T19:17:06.448Z,19.02
2022-10-04T19:19:48.106Z,19.15
2022-10-04T19:22:30.690Z,19.05
2022-10-04T19:25:25.398Z,18.94
2022-10-04T19:28:05.244Z,18.91
2022-10-04T19:30:54.947Z,18.92
2022-10-04T19:33:39.250Z,18.89
2022-10-04T19:36:32.565Z,18.55
2022-10-04T19:39:18.283Z,18.90
2022-10-04T19:41:56.182Z,18.67
2022-10-04T19:44:43.496Z,18.81
2022-10-04T19:47:35.245Z,18.62
2022-10-04T19:50:17.775Z,18.62
2022-10-04T19:52:54.699Z,18.51
2022-10-04T19:55:31.624Z,18.32
2022-10-04T19:58:19.331Z,18.44
2022-10-04T20:00:49.147Z,18.51
2022-10-04T20:03:18.026Z,18.55
2022-10-04T20:05:50.313Z,18.43
2022-10-04T20:09:00.730Z,18.45
2022-10-04T20:11:49.717Z,18.22
2022-10-04T20:15:13.131Z,18.52
2022-10-04T20:17:42.242Z,18.49
2022-10-04T20:20:14.253Z,18.48
2022-10-04T20:22:59.914Z,18.41
2022-10-04T20:26:03.923Z,18.26
2022-10-04T20:28:44.767Z,18.51
2022-10-04T20:31:54.745Z,18.29
2022-10-04T20:34:35.568Z,18.15
2022-10-04T20:37:05.845Z,18.24
2022-10-04T20:40:01.369Z,18.56
2022-10-04T20:42:42.158Z,18.49
2022-10-04T20:45:25.966Z,18.43
2022-10-04T20:47:57.912Z,17.82
2022-10-04T20:50:38.850Z,18.24
2022-10-04T20:53:16.669Z,18.16
2022-10-04T20:55:46.087Z,18.34
2022-10-04T20:58:35.229Z,18.50
2022-10-04T21:01:16.917Z,18.04
2022-10-04T21:03:45.386Z,17.96
2022-10-04T21:06:13.784Z,18.37
2022-10-04T21:08:42.583Z,18.19
2022-10-04T21:11:20.806Z,18.36
2022-10-04T21:13:59.842Z,18.23
2022-10-04T21:16:48.272Z,18.54
2022-10-04T21:19:47.082Z,18.25
2022-10-04T21:22:39.151Z,18.16
2022-10-04T21:25:33.693Z,18.09
2022-10-04T21:28:33.322Z,18.45
2022-10-04T21:31:04.777Z,18.07
2022-10-04T21:33:34.456Z,18.27
2022-10-04T21:36:04.128Z,18.21
2022-10-04T21:38:32.821Z,18.20
2022-10-04T21:41:01.164Z,18.28
2022-10-04T21:43:29.418Z,18.46
2022-10-04T21:45:57.966Z,18.40
2022-10-04T21:48:27.997Z,18.36
2022-10-04T21:50:57.104Z,18.38
2022-10-04T21:53:25.473Z,18.30
2022-10-04T21:55:53.825Z,18.43
2022-10-04T21:58:23.063Z,18.21
2022-10-04T22:00:51.514Z,18.26
2022-10-04T22:03:19.915Z,18.29
2022-10-04T22:05:49.822Z,18.45
2022-10-04T22:08:18.255Z,18.38
2022-10-04T22:10:48.137Z,18.35
2022-10-04T22:13:16.724Z,18.58
2022-10-04T22:15:45.009Z,18.39
2022-10-04T22:18:13.404Z,18.45
2022-10-04T22:20:41.865Z,18.38
2022-10-04T22:23:19.892Z,18.00
2022-10-04T22:25:48.273Z,18.23
2022-10-04T22:28:23.224Z,18.23
2022-10-04T22:30:53.268Z,18.39
2022-10-04T22:33:32.319Z,17.98
2022-10-04T22:36:13.936Z,18.33
2022-10-04T22:38:51.089Z,17.95
2022-10-04T22:41:21.115Z,18.15
2022-10-04T22:43:51.494Z,18.03
2022-10-04T22:46:21.225Z,18.14
2022-10-04T22:48:50.903Z,18.13
2022-10-04T22:51:19.318Z,18.10
2022-10-04T22:53:49.580Z,18.16
2022-10-04T22:56:18.297Z,18.16
2022-10-04T22:58:46.686Z,18.13
2022-10-04T23:01:18.206Z,17.97
2022-10-04T23:03:49.542Z,18.30
2022-10-04T23:06:18.113Z,18.41
2022-10-04T23:08:47.977Z,18.44
2022-10-04T23:11:16.257Z,18.11
2022-10-04T23:13:44.624Z,18.27
2022-10-04T23:16:18.384Z,18.02
2022-10-04T23:18:46.721Z,18.07
2022-10-04T23:21:22.697Z,18.03
2022-10-04T23:23:54.224Z,18.26
2022-10-04T23:26:26.098Z,18.27
2022-10-04T23:28:54.529Z,18.33
2022-10-04T23:31:25.952Z,17.89
2022-10-04T23:33:57.039Z,18.08
2022-10-04T23:36:25.585Z,18.52
2022-10-04T23:39:02.015Z,18.54
2022-10-04T23:41:30.353Z,18.59
2022-10-04T23:43:58.610Z,18.39
2022-10-04T23:46:26.962Z,18.33
2022-10-04T23:48:55.198Z,18.44
2022-10-04T23:51:23.646Z,18.36
2022-10-04T23:53:52.083Z,18.20
2022-10-04T23:56:26.186Z,18.10
2022-10-04T23:58:57.858Z,18.13
